Terminal Aerodrome Forecast
Issued by NWS Twin Cities, MN

Home | Current Version | Previous Version | Text Only | Print | Product List | Glossary Off
Versions: 1 2 3 4 5 6 7 8 9 10 11 12 13 14 15 16 17 18 19

000
FTUS43 KMPX 192300
TAFSTC
TAF
KSTC 192326Z 2000/2024 VRB03KT P6SM SCT100 BKN120
     FM200800 16004KT 6SM BR SCT070 BKN200
     FM201500 18015G21KT P6SM SCT060 BKN150=

USA.gov is the U.S. government's official web portal to all federal, state and local government web resources and services.